createdAt,value
2019-02-09T00:01:10.600Z,5.50
2019-02-09T00:03:40.717Z,4.90
2019-02-09T00:06:09.785Z,3.93
2019-02-09T00:08:38.853Z,5.00
2019-02-09T00:11:08.021Z,6.87
2019-02-09T00:13:37.029Z,3.90
2019-02-09T00:16:06.342Z,5.70
2019-02-09T00:18:35.502Z,8.37
2019-02-09T00:21:04.636Z,5.63
2019-02-09T00:23:33.715Z,4.00
2019-02-09T00:26:02.717Z,8.90
2019-02-09T00:28:32.250Z,6.50
2019-02-09T00:31:01.242Z,5.40
2019-02-09T00:33:30.401Z,7.90
2019-02-09T00:35:59.451Z,6.93
2019-02-09T00:38:28.448Z,5.50
2019-02-09T00:40:57.502Z,8.67
2019-02-09T00:43:26.581Z,4.80
2019-02-09T00:45:55.658Z,3.33
2019-02-09T00:48:24.657Z,3.60
2019-02-09T00:50:53.616Z,7.23
2019-02-09T00:53:22.639Z,5.40
2019-02-09T00:55:51.641Z,7.03
2019-02-09T00:58:20.647Z,6.30
2019-02-09T01:00:49.681Z,5.90
2019-02-09T01:03:18.757Z,7.83
2019-02-09T01:05:47.817Z,8.17
2019-02-09T01:08:16.846Z,7.23
2019-02-09T01:10:45.819Z,9.70
2019-02-09T01:13:14.796Z,7.87
2019-02-09T01:15:43.901Z,8.33
2019-02-09T01:18:12.907Z,7.90
2019-02-09T01:20:41.887Z,9.43
2019-02-09T01:23:10.869Z,7.70
2019-02-09T01:25:39.871Z,17.27
2019-02-09T01:28:08.961Z,13.90
2019-02-09T01:30:38.019Z,11.83
2019-02-09T01:33:07.064Z,15.37
2019-02-09T01:35:36.065Z,9.70
2019-02-09T01:38:05.054Z,11.80
2019-02-09T01:40:34.070Z,13.87
2019-02-09T01:43:03.050Z,13.30
2019-02-09T01:45:32.269Z,12.97
2019-02-09T01:48:01.327Z,14.63
2019-02-09T01:50:31.217Z,20.23
2019-02-09T01:53:00.225Z,11.17
2019-02-09T01:55:29.594Z,10.03
2019-02-09T01:57:58.746Z,7.87
2019-02-09T02:00:32.578Z,8.43
2019-02-09T02:03:01.643Z,11.53
2019-02-09T02:05:30.644Z,15.03
2019-02-09T02:07:59.691Z,9.03
2019-02-09T02:10:33.571Z,9.53
2019-02-09T02:13:02.854Z,12.97
2019-02-09T02:15:32.250Z,8.60
2019-02-09T02:18:01.457Z,8.43
2019-02-09T02:20:30.968Z,13.30
2019-02-09T02:22:59.954Z,9.53
2019-02-09T02:25:29.054Z,13.40
2019-02-09T02:27:58.039Z,11.80
2019-02-09T02:30:29.140Z,10.57
2019-02-09T02:32:58.174Z,6.20
2019-02-09T02:35:27.111Z,10.97
2019-02-09T02:37:56.072Z,10.90
2019-02-09T02:40:25.090Z,11.60
2019-02-09T02:42:54.047Z,8.53
2019-02-09T02:45:23.203Z,17.33
2019-02-09T02:47:52.226Z,15.53
2019-02-09T02:50:21.206Z,14.47
2019-02-09T02:52:50.253Z,11.17
2019-02-09T02:55:21.010Z,16.03
2019-02-09T02:57:51.683Z,15.93
2019-02-09T03:00:31.374Z,17.50
2019-02-09T03:02:53.365Z,12.23
2019-02-09T03:05:23.014Z,17.70
2019-02-09T03:07:52.108Z,13.73
2019-02-09T03:10:21.166Z,17.37
2019-02-09T03:12:50.169Z,17.53
2019-02-09T03:15:21.130Z,16.00
2019-02-09T03:17:50.126Z,15.63
2019-02-09T03:20:19.247Z,13.10
2019-02-09T03:22:48.243Z,14.73
2019-02-09T03:25:19.507Z,16.40
2019-02-09T03:27:48.638Z,16.30
2019-02-09T03:30:17.806Z,15.27
2019-02-09T03:32:46.887Z,18.20
2019-02-09T03:35:16.022Z,16.40
2019-02-09T03:37:45.058Z,12.90
2019-02-09T03:40:15.974Z,18.83
2019-02-09T03:42:45.066Z,19.37
2019-02-09T03:45:16.847Z,17.73
2019-02-09T03:47:45.898Z,13.23
2019-02-09T03:50:15.245Z,16.03
2019-02-09T03:52:44.313Z,16.37
2019-02-09T03:55:13.394Z,18.97
2019-02-09T03:57:42.390Z,21.03
2019-02-09T04:00:14.803Z,16.90
2019-02-09T04:02:43.794Z,15.73
2019-02-09T04:05:12.838Z,16.27
2019-02-09T04:07:41.786Z,17.83
2019-02-09T04:10:11.806Z,17.33
2019-02-09T04:12:40.786Z,24.90
2019-02-09T04:15:10.218Z,19.23
2019-02-09T04:17:39.237Z,24.97
2019-02-09T04:20:10.233Z,15.30
2019-02-09T04:22:39.554Z,24.00
2019-02-09T04:25:09.649Z,19.70
2019-02-09T04:27:45.845Z,16.57
2019-02-09T04:30:20.266Z,19.53
2019-02-09T04:32:49.255Z,17.27
2019-02-09T04:35:18.382Z,15.63
2019-02-09T04:37:47.412Z,24.37
2019-02-09T04:40:18.791Z,25.37
2019-02-09T04:42:47.783Z,23.77
2019-02-09T04:45:18.628Z,22.37
2019-02-09T04:47:47.750Z,23.40
2019-02-09T04:50:16.810Z,20.33
2019-02-09T04:52:45.867Z,20.17
2019-02-09T04:55:17.154Z,24.40
2019-02-09T04:57:46.086Z,21.63
2019-02-09T05:00:17.234Z,18.90
2019-02-09T05:02:47.432Z,17.40
2019-02-09T05:05:16.494Z,17.17
2019-02-09T05:07:45.560Z,15.70
2019-02-09T05:10:15.281Z,16.63
2019-02-09T05:12:44.288Z,24.90
2019-02-09T05:15:13.841Z,17.93
2019-02-09T05:17:42.839Z,20.43
2019-02-09T05:20:14.127Z,28.47
2019-02-09T05:22:43.158Z,23.90
2019-02-09T05:25:12.249Z,23.57
2019-02-09T05:27:41.262Z,30.20
2019-02-09T05:30:15.956Z,20.93
2019-02-09T05:32:45.018Z,28.87
2019-02-09T05:35:14.106Z,18.43
2019-02-09T05:37:43.116Z,24.70
2019-02-09T05:40:13.718Z,18.63
2019-02-09T05:42:42.728Z,20.20
2019-02-09T05:45:30.942Z,18.23
2019-02-09T05:48:00.082Z,23.50
2019-02-09T05:50:29.154Z,22.73
2019-02-09T05:52:58.178Z,16.43
2019-02-09T05:55:27.142Z,19.80
2019-02-09T05:57:56.139Z,17.67
2019-02-09T06:00:38.726Z,23.30
2019-02-09T06:03:07.778Z,24.83
2019-02-09T06:05:36.843Z,23.90
2019-02-09T06:08:05.921Z,20.23
2019-02-09T06:10:34.948Z,25.00
2019-02-09T06:13:03.956Z,30.50
2019-02-09T06:15:32.930Z,25.50
2019-02-09T06:18:01.947Z,22.37
2019-02-09T06:20:30.998Z,25.47
2019-02-09T06:23:00.038Z,29.50
2019-02-09T06:25:29.084Z,27.67
2019-02-09T06:27:58.094Z,28.63
2019-02-09T06:30:28.491Z,27.10
2019-02-09T06:32:57.435Z,27.63
2019-02-09T06:35:26.541Z,20.33
2019-02-09T06:37:55.680Z,20.57
2019-02-09T06:40:24.758Z,19.23
2019-02-09T06:42:53.769Z,19.30
2019-02-09T06:45:23.063Z,25.90
2019-02-09T06:47:52.077Z,24.33
2019-02-09T06:50:26.705Z,21.73
2019-02-09T06:52:55.725Z,25.80
2019-02-09T06:55:24.744Z,21.00
2019-02-09T06:57:53.830Z,26.57
2019-02-09T07:00:22.844Z,19.13
2019-02-09T07:02:51.913Z,28.97
2019-02-09T07:05:20.977Z,22.47
2019-02-09T07:07:49.954Z,19.50
2019-02-09T07:10:23.192Z,19.07
2019-02-09T07:12:52.215Z,26.50
2019-02-09T07:15:25.871Z,26.57
2019-02-09T07:17:54.924Z,22.43
2019-02-09T07:20:23.982Z,25.80
2019-02-09T07:22:54.319Z,19.30
2019-02-09T07:25:23.398Z,22.63
2019-02-09T07:27:52.421Z,18.83
2019-02-09T07:30:23.362Z,23.00
2019-02-09T07:32:52.415Z,26.83
2019-02-09T07:35:21.388Z,25.37
2019-02-09T07:37:50.453Z,28.17
2019-02-09T07:40:19.913Z,29.30
2019-02-09T07:42:49.091Z,30.37
2019-02-09T07:45:19.910Z,28.67
2019-02-09T07:47:48.885Z,40.47
2019-02-09T07:50:18.815Z,40.03
2019-02-09T07:52:47.868Z,34.33
2019-02-09T07:55:17.714Z,33.73
2019-02-09T07:57:46.870Z,36.27
2019-02-09T08:00:18.526Z,33.60
2019-02-09T08:02:47.685Z,38.37
2019-02-09T08:05:16.622Z,28.27
2019-02-09T08:07:45.660Z,36.87
2019-02-09T08:10:17.140Z,36.47
2019-02-09T08:12:46.196Z,39.90
2019-02-09T08:15:20.658Z,32.27
2019-02-09T08:17:49.703Z,31.93
2019-02-09T08:20:19.580Z,39.83
2019-02-09T08:22:50.117Z,35.23
2019-02-09T08:25:21.000Z,26.70
2019-02-09T08:27:50.015Z,32.73
2019-02-09T08:30:21.544Z,31.30
2019-02-09T08:32:50.544Z,33.33
2019-02-09T08:35:19.653Z,26.57
2019-02-09T08:37:48.692Z,30.03
2019-02-09T08:40:17.778Z,34.93
2019-02-09T08:42:46.759Z,20.43
2019-02-09T08:45:17.473Z,26.20
2019-02-09T08:47:46.541Z,29.87
2019-02-09T08:50:21.149Z,33.73
2019-02-09T08:52:50.276Z,29.03
2019-02-09T08:55:19.333Z,31.47
2019-02-09T08:57:48.402Z,26.43
2019-02-09T09:00:19.983Z,27.83
2019-02-09T09:02:49.044Z,30.20
2019-02-09T09:05:18.071Z,26.10
2019-02-09T09:07:47.202Z,28.83
2019-02-09T09:10:16.882Z,30.20
2019-02-09T09:12:45.882Z,30.27
2019-02-09T09:15:18.162Z,30.53
2019-02-09T09:17:47.113Z,24.30
2019-02-09T09:20:19.485Z,23.90
2019-02-09T09:22:48.508Z,23.97
2019-02-09T09:25:17.620Z,23.80
2019-02-09T09:28:03.158Z,32.17
2019-02-09T09:30:35.535Z,26.77
2019-02-09T09:33:04.544Z,24.13
2019-02-09T09:35:33.650Z,26.60
2019-02-09T09:38:02.618Z,31.00
2019-02-09T09:40:34.265Z,24.60
2019-02-09T09:43:03.325Z,26.93
2019-02-09T09:45:33.764Z,26.43
2019-02-09T09:48:02.830Z,20.37
2019-02-09T09:50:31.798Z,22.80
2019-02-09T09:53:00.750Z,25.30
2019-02-09T09:55:29.750Z,20.70
2019-02-09T09:57:58.689Z,22.13
2019-02-09T10:00:27.832Z,25.23
2019-02-09T10:02:56.988Z,27.53
2019-02-09T10:05:26.090Z,21.73
2019-02-09T10:07:55.170Z,19.73
2019-02-09T10:10:24.159Z,20.83
2019-02-09T10:12:53.235Z,22.83
2019-02-09T10:15:23.195Z,23.30
2019-02-09T10:17:52.220Z,18.60
2019-02-09T10:20:22.653Z,31.47
2019-02-09T10:22:51.873Z,22.80
2019-02-09T10:25:20.986Z,25.13
2019-02-09T10:27:50.088Z,25.40
2019-02-09T10:30:21.077Z,31.03
2019-02-09T10:32:50.079Z,26.40
2019-02-09T10:35:19.999Z,16.57
2019-02-09T10:37:49.034Z,24.80
2019-02-09T10:40:20.194Z,20.47
2019-02-09T10:42:49.465Z,24.63
2019-02-09T10:45:20.535Z,24.93
2019-02-09T10:47:49.668Z,17.60
2019-02-09T10:50:21.272Z,18.97
2019-02-09T10:52:50.342Z,21.70
2019-02-09T10:55:19.422Z,20.70
2019-02-09T10:57:48.448Z,18.27
2019-02-09T11:00:20.379Z,19.00
2019-02-09T11:02:52.234Z,20.83
2019-02-09T11:05:20.221Z,16.13
2019-02-09T11:07:49.307Z,19.53
2019-02-09T11:10:18.761Z,15.13
2019-02-09T11:12:47.849Z,17.77
2019-02-09T11:15:18.093Z,23.57
2019-02-09T11:17:47.156Z,18.43
2019-02-09T11:20:17.733Z,24.63
2019-02-09T11:22:46.909Z,23.73
2019-02-09T11:25:16.698Z,14.43
2019-02-09T11:27:45.740Z,21.27
2019-02-09T11:30:17.255Z,19.17
2019-02-09T11:32:46.300Z,13.67
2019-02-09T11:35:15.284Z,15.93
2019-02-09T11:37:44.321Z,20.23
2019-02-09T11:40:13.575Z,24.67
2019-02-09T11:42:42.599Z,21.13
2019-02-09T11:45:17.729Z,20.00
2019-02-09T11:47:46.811Z,18.60
2019-02-09T11:50:15.909Z,15.27
2019-02-09T11:52:45.053Z,19.63
2019-02-09T11:55:15.886Z,13.37
2019-02-09T11:57:45.012Z,15.87
2019-02-09T12:00:37.880Z,14.27
2019-02-09T12:03:15.032Z,17.63
2019-02-09T12:05:39.343Z,13.63
2019-02-09T12:08:08.395Z,18.37
2019-02-09T12:10:37.424Z,19.57
2019-02-09T12:13:06.689Z,18.30
2019-02-09T12:15:35.793Z,14.83
2019-02-09T12:18:05.749Z,16.73
2019-02-09T12:20:34.845Z,22.50
2019-02-09T12:23:03.962Z,13.20
2019-02-09T12:25:33.784Z,19.07
2019-02-09T12:28:02.881Z,15.50
2019-02-09T12:30:33.725Z,12.90
2019-02-09T12:33:02.792Z,14.40
2019-02-09T12:35:31.913Z,15.77
2019-02-09T12:38:00.908Z,18.00
2019-02-09T12:40:31.449Z,15.13
2019-02-09T12:43:00.591Z,16.57
2019-02-09T12:45:30.462Z,14.43
2019-02-09T12:47:59.527Z,11.43
2019-02-09T12:50:28.667Z,19.37
2019-02-09T12:52:57.673Z,17.40
2019-02-09T12:55:28.847Z,19.80
2019-02-09T12:58:00.185Z,14.73
2019-02-09T13:00:33.277Z,14.23
2019-02-09T13:03:14.402Z,17.97
2019-02-09T13:05:46.280Z,14.93
2019-02-09T13:08:16.685Z,19.47
2019-02-09T13:10:45.730Z,16.30
2019-02-09T13:13:14.746Z,18.53
2019-02-09T13:15:43.824Z,18.17
2019-02-09T13:18:12.997Z,18.63
2019-02-09T13:20:41.994Z,16.97
2019-02-09T13:23:11.191Z,20.67
2019-02-09T13:25:40.207Z,19.10
2019-02-09T13:28:09.308Z,16.57
2019-02-09T13:30:38.561Z,22.40
2019-02-09T13:33:09.239Z,18.83
2019-02-09T13:35:38.320Z,16.07
2019-02-09T13:38:07.325Z,21.93
2019-02-09T13:40:36.378Z,18.67
2019-02-09T13:43:05.534Z,21.00
2019-02-09T13:45:39.613Z,17.30
2019-02-09T13:48:08.782Z,20.93
2019-02-09T13:50:37.979Z,19.30
2019-02-09T13:53:09.153Z,21.43
2019-02-09T13:55:38.258Z,18.60
2019-02-09T13:58:07.226Z,20.47
2019-02-09T14:00:36.340Z,21.30
2019-02-09T14:03:05.745Z,21.27
2019-02-09T14:05:34.887Z,19.60
2019-02-09T14:08:03.883Z,22.33
2019-02-09T14:10:32.910Z,20.57
2019-02-09T14:13:01.947Z,21.27
2019-02-09T14:15:31.695Z,25.37
2019-02-09T14:18:02.079Z,23.40
2019-02-09T14:20:31.151Z,21.07
2019-02-09T14:23:00.253Z,24.70
2019-02-09T14:25:29.329Z,24.30
2019-02-09T14:27:59.994Z,28.30
2019-02-09T14:30:30.099Z,21.77
2019-02-09T14:32:59.194Z,21.93
2019-02-09T14:35:29.964Z,19.93
2019-02-09T14:37:59.061Z,19.83
2019-02-09T14:40:29.857Z,23.57
2019-02-09T14:42:58.898Z,17.77
2019-02-09T14:45:35.784Z,23.03
2019-02-09T14:48:04.877Z,15.97
2019-02-09T14:50:33.893Z,19.17
2019-02-09T14:53:02.984Z,23.00
2019-02-09T14:55:33.349Z,16.63
2019-02-09T14:58:02.674Z,13.03
2019-02-09T15:00:40.030Z,17.37
2019-02-09T15:03:09.404Z,18.10
2019-02-09T15:05:38.454Z,15.23
2019-02-09T15:08:07.674Z,15.43
2019-02-09T15:10:38.727Z,20.00
2019-02-09T15:13:09.158Z,19.10
2019-02-09T15:16:01.685Z,23.50
2019-02-09T15:18:30.624Z,20.93
2019-02-09T15:21:01.173Z,23.77
2019-02-09T15:23:30.301Z,21.87
2019-02-09T15:25:59.407Z,23.40
2019-02-09T15:28:28.461Z,20.53
2019-02-09T15:30:57.476Z,25.30
2019-02-09T15:33:26.517Z,25.37
2019-02-09T15:35:55.533Z,25.07
2019-02-09T15:38:24.662Z,23.70
2019-02-09T15:40:53.730Z,20.37
2019-02-09T15:43:22.870Z,25.77
2019-02-09T15:45:51.857Z,27.93
2019-02-09T15:48:22.369Z,26.57
2019-02-09T15:50:51.605Z,21.17
2019-02-09T15:53:20.707Z,30.77
2019-02-09T15:55:49.744Z,28.33
2019-02-09T15:58:18.749Z,21.03
2019-02-09T16:00:47.818Z,28.77
2019-02-09T16:03:16.837Z,27.70
2019-02-09T16:05:45.995Z,27.43
2019-02-09T16:08:15.050Z,27.67
2019-02-09T16:10:44.111Z,21.13
2019-02-09T16:13:13.174Z,24.57
2019-02-09T16:15:42.213Z,20.73
2019-02-09T16:18:11.185Z,22.20
2019-02-09T16:20:40.221Z,18.00
2019-02-09T16:23:09.287Z,28.30
2019-02-09T16:25:38.376Z,28.73
2019-02-09T16:28:07.382Z,24.27
2019-02-09T16:30:36.381Z,20.20
2019-02-09T16:33:05.363Z,17.17
2019-02-09T16:35:34.405Z,16.77
2019-02-09T16:38:03.441Z,20.37
2019-02-09T16:40:32.483Z,20.63
2019-02-09T16:43:01.483Z,16.23
2019-02-09T16:45:32.204Z,27.20
2019-02-09T16:48:01.334Z,22.20
2019-02-09T16:50:30.434Z,22.13
2019-02-09T16:52:59.433Z,29.40
2019-02-09T16:55:28.430Z,22.67
2019-02-09T16:57:57.433Z,27.40
2019-02-09T17:00:35.009Z,27.63
2019-02-09T17:03:05.809Z,18.67
2019-02-09T17:05:34.854Z,21.00
2019-02-09T17:08:03.860Z,18.73
2019-02-09T17:10:32.883Z,19.57
2019-02-09T17:13:01.885Z,20.37
2019-02-09T17:15:30.883Z,21.57
2019-02-09T17:17:59.915Z,21.27
2019-02-09T17:20:28.926Z,31.10
2019-02-09T17:22:57.938Z,22.17
2019-02-09T17:25:26.925Z,21.63
2019-02-09T17:27:55.881Z,26.40
2019-02-09T17:30:26.329Z,26.47
2019-02-09T17:32:55.422Z,19.93
2019-02-09T17:35:24.488Z,24.13
2019-02-09T17:37:53.566Z,20.90
2019-02-09T17:40:24.884Z,20.23
2019-02-09T17:42:53.969Z,27.77
2019-02-09T17:45:28.339Z,24.87
2019-02-09T17:47:57.332Z,32.97
2019-02-09T17:50:26.348Z,33.23
2019-02-09T17:52:56.574Z,25.87
2019-02-09T17:55:25.593Z,27.83
2019-02-09T17:57:54.700Z,25.67
2019-02-09T18:00:48.881Z,27.87
2019-02-09T18:03:18.023Z,27.00
2019-02-09T18:05:47.199Z,28.47
2019-02-09T18:08:16.331Z,29.53
2019-02-09T18:10:45.379Z,23.07
2019-02-09T18:13:14.442Z,26.77
2019-02-09T18:15:43.455Z,27.97
2019-02-09T18:18:12.509Z,27.30
2019-02-09T18:20:41.629Z,25.30
2019-02-09T18:23:10.774Z,20.80
2019-02-09T18:25:39.797Z,21.73
2019-02-09T18:28:08.821Z,21.87
2019-02-09T18:30:40.065Z,22.23
2019-02-09T18:33:11.075Z,22.53
2019-02-09T18:35:40.072Z,23.10
2019-02-09T18:38:09.206Z,30.93
2019-02-09T18:40:38.219Z,24.20
2019-02-09T18:43:07.184Z,27.43
2019-02-09T18:45:36.154Z,23.70
2019-02-09T18:48:05.213Z,27.27
2019-02-09T18:50:34.250Z,26.87
2019-02-09T18:53:03.285Z,28.23
2019-02-09T18:55:32.270Z,28.40
2019-02-09T18:58:01.418Z,29.40
2019-02-09T19:00:31.512Z,31.03
2019-02-09T19:03:00.577Z,46.80
2019-02-09T19:05:29.643Z,27.80
2019-02-09T19:07:58.686Z,34.27
2019-02-09T19:10:27.888Z,42.93
2019-02-09T19:12:56.942Z,28.63
2019-02-09T19:15:26.408Z,23.23
2019-02-09T19:17:55.649Z,28.17
2019-02-09T19:20:30.144Z,26.57
2019-02-09T19:23:00.294Z,29.57
2019-02-09T19:25:29.348Z,22.27
2019-02-09T19:27:58.473Z,25.40
2019-02-09T19:30:27.531Z,32.70
2019-02-09T19:32:56.608Z,26.97
2019-02-09T19:35:25.722Z,26.07
2019-02-09T19:37:54.739Z,26.47
2019-02-09T19:40:23.899Z,24.87
2019-02-09T19:42:52.962Z,31.43
2019-02-09T19:45:27.205Z,28.17
2019-02-09T19:47:56.334Z,27.53
2019-02-09T19:50:25.387Z,40.43
2019-02-09T19:52:54.454Z,26.87
2019-02-09T19:55:25.127Z,25.60
2019-02-09T19:57:54.194Z,27.23
2019-02-09T20:00:25.419Z,23.83
2019-02-09T20:02:57.093Z,26.37
2019-02-09T20:05:26.124Z,22.50
2019-02-09T20:07:55.591Z,24.83
2019-02-09T20:10:27.046Z,28.73
2019-02-09T20:12:57.485Z,17.80
2019-02-09T20:15:26.631Z,26.07
2019-02-09T20:17:55.777Z,18.60
2019-02-09T20:20:24.786Z,26.17
2019-02-09T20:22:53.910Z,14.17
2019-02-09T20:25:23.138Z,19.13
2019-02-09T20:27:52.202Z,21.80
2019-02-09T20:30:25.857Z,21.57
2019-02-09T20:32:54.934Z,23.33
2019-02-09T20:35:27.818Z,21.40
2019-02-09T20:37:54.947Z,24.13
2019-02-09T20:40:26.469Z,16.87
2019-02-09T20:43:01.784Z,26.33
2019-02-09T20:45:26.357Z,22.47
2019-02-09T20:47:55.372Z,22.70
2019-02-09T20:50:25.740Z,23.00
2019-02-09T20:52:54.792Z,23.80
2019-02-09T20:55:23.942Z,20.40
2019-02-09T20:57:53.001Z,22.97
2019-02-09T21:00:22.899Z,19.80
2019-02-09T21:02:51.966Z,17.70
2019-02-09T21:05:21.041Z,15.03
2019-02-09T21:07:50.200Z,22.53
2019-02-09T21:10:21.250Z,16.77
2019-02-09T21:12:50.212Z,21.77
2019-02-09T21:15:20.592Z,19.73
2019-02-09T21:17:49.679Z,15.23
2019-02-09T21:20:18.809Z,25.60
2019-02-09T21:22:47.899Z,14.60
2019-02-09T21:25:19.227Z,16.20
2019-02-09T21:27:48.275Z,17.13
2019-02-09T21:30:18.630Z,23.70
2019-02-09T21:32:47.741Z,17.57
2019-02-09T21:35:16.831Z,19.10
2019-02-09T21:37:45.922Z,16.67
2019-02-09T21:40:17.149Z,18.43
2019-02-09T21:42:46.223Z,16.83
2019-02-09T21:45:15.735Z,20.07
2019-02-09T21:47:44.841Z,21.47
2019-02-09T21:50:18.892Z,15.57
2019-02-09T21:52:49.576Z,17.17
2019-02-09T21:55:18.689Z,14.87
2019-02-09T21:57:47.722Z,15.70
2019-02-09T22:00:30.988Z,18.67
2019-02-09T22:03:01.091Z,18.20
2019-02-09T22:05:30.228Z,18.30
2019-02-09T22:07:59.293Z,13.27
2019-02-09T22:10:32.143Z,17.97
2019-02-09T22:12:59.364Z,19.37
2019-02-09T22:15:28.549Z,17.63
2019-02-09T22:17:57.717Z,15.10
2019-02-09T22:20:27.106Z,18.67
2019-02-09T22:22:56.173Z,17.37
2019-02-09T22:25:25.391Z,19.40
2019-02-09T22:27:54.450Z,15.27
2019-02-09T22:30:25.463Z,13.77
2019-02-09T22:32:54.680Z,17.63
2019-02-09T22:35:23.920Z,14.83
2019-02-09T22:37:53.007Z,11.83
2019-02-09T22:40:24.221Z,15.10
2019-02-09T22:42:53.384Z,21.47
2019-02-09T22:45:22.607Z,17.10
2019-02-09T22:47:51.780Z,14.40
2019-02-09T22:50:23.030Z,18.17
2019-02-09T22:52:52.069Z,13.07
2019-02-09T22:55:21.156Z,16.73
2019-02-09T22:57:50.286Z,18.87
2019-02-09T23:00:52.784Z,19.90
2019-02-09T23:04:13.817Z,15.10
2019-02-09T23:07:07.805Z,14.13
2019-02-09T23:09:36.869Z,12.07
2019-02-09T23:12:05.875Z,19.53
2019-02-09T23:14:34.966Z,14.83
2019-02-09T23:17:04.027Z,16.00
2019-02-09T23:19:33.105Z,17.97
2019-02-09T23:22:02.222Z,18.13
2019-02-09T23:24:31.241Z,13.57
2019-02-09T23:27:00.353Z,16.57
2019-02-09T23:29:29.409Z,15.47
2019-02-09T23:31:58.570Z,18.60
2019-02-09T23:34:27.629Z,11.80
2019-02-09T23:36:56.693Z,11.60
2019-02-09T23:39:25.776Z,13.20
2019-02-09T23:41:54.837Z,10.83
2019-02-09T23:44:23.933Z,15.23
2019-02-09T23:46:52.997Z,13.33
2019-02-09T23:49:22.060Z,15.80
2019-02-09T23:51:51.087Z,11.90
2019-02-09T23:54:20.144Z,14.77
2019-02-09T23:56:49.213Z,14.07
2019-02-09T23:59:18.274Z,15.30
